Coolidge, New Mexico
Current Conditions -  °F | °C
As of 4:53 PM on Monday 22 Dec 2014 (Local Time) from KGUP Reporting Station
Broken Clouds Broken Clouds  
Wind Chill: 34°   Ceiling: 10000
Heat Index: 41°   Visibility: 10mi
Dew Point: 34°   Wind: 12mph
Humidity: 76%   Direction: 320°NW
Pressure: 29.89"   Gusts: 24mph
Location:  35.4745°N, 108.45°W
Report Text: KGUP 222353Z AUTO 32010G21KT 10SM SCT030 SCT050 BKN100 05/01 A2989 RMK AO2 PK WND 33027/2332 RAB32E48 SLP101 P0000 60000 T00500011 10117 20050 53008
Loading
Personal Weather Stations






























Interactive Weather Map New forecast layout! Learn more

10-Day Weather Forecast

Advertisements
Track Severe Weather on mobile